Time;durP1;ratioP1;P1;durP2;ratioP2;P2;SDS_P1;SDS_P2;PMS_P1;PMS_P2;Temp;Humidity;BMP_temperature;BMP_pressure;BME280_temperature;BME280_humidity;BME280_pressure;Samples;Min_cycle;Max_cycle;Signal;HPM_P1;HPM_P2
2023/12/28 00:00:39;;;;;;;5.15;2.78;;;;;;;;;;4985071;28;20490;-81
2023/12/28 00:03:06;;;;;;;6.53;3.15;;;;;;;;;;4971764;28;20034;-81
2023/12/28 00:05:32;;;;;;;4.10;2.78;;;;;;;;;;4987306;28;20041;-81
2023/12/28 00:07:58;;;;;;;11.57;3.85;;;;;;;;;;4982975;28;20034;-82
2023/12/28 00:10:25;;;;;;;4.57;3.00;;;;;;;;;;4971213;28;20043;-81
2023/12/28 00:12:51;;;;;;;5.05;3.45;;;;;;;;;;4975457;28;20041;-82
2023/12/28 00:15:17;;;;;;;3.28;2.53;;;;;;;;;;4953609;28;20039;-81
2023/12/28 00:17:43;;;;;;;6.38;3.53;;;;;;;;;;4970853;28;20042;-78
2023/12/28 00:20:09;;;;;;;5.53;3.67;;;;;;;;;;4968554;28;20038;-82
2023/12/28 00:22:37;;;;;;;7.03;3.00;;;;;;;;;;4984897;28;20092;-79
2023/12/28 00:25:03;;;;;;;3.83;2.83;;;;;;;;;;4968869;28;20038;-81
2023/12/28 00:27:30;;;;;;;5.53;3.55;;;;;;;;;;4965382;28;20045;-75
2023/12/28 00:29:56;;;;;;;3.95;3.08;;;;;;;;;;4972734;28;20128;-76
2023/12/28 00:32:22;;;;;;;4.97;3.38;;;;;;;;;;4969378;28;20481;-76
2023/12/28 00:34:48;;;;;;;5.15;3.13;;;;;;;;;;4971853;28;20088;-76
2023/12/28 00:37:14;;;;;;;3.72;2.90;;;;;;;;;;4955689;28;20515;-75
2023/12/28 00:39:40;;;;;;;6.97;2.80;;;;;;;;;;4970821;28;20053;-75
2023/12/28 00:42:06;;;;;;;11.20;3.35;;;;;;;;;;4982795;28;20049;-75
2023/12/28 00:44:32;;;;;;;8.13;3.55;;;;;;;;;;4986505;28;20052;-76
2023/12/28 00:46:58;;;;;;;6.25;3.83;;;;;;;;;;4970976;28;20030;-75
2023/12/28 00:49:25;;;;;;;5.65;3.25;;;;;;;;;;4968644;28;20044;-79
2023/12/28 00:51:51;;;;;;;4.43;3.47;;;;;;;;;;4970602;28;20037;-78
2023/12/28 00:54:17;;;;;;;4.45;3.35;;;;;;;;;;4978247;28;20074;-76
2023/12/28 00:56:43;;;;;;;7.50;3.70;;;;;;;;;;4971375;28;20033;-76
2023/12/28 00:59:09;;;;;;;5.97;3.58;;;;;;;;;;4956735;28;20046;-75
2023/12/28 01:01:35;;;;;;;5.10;3.63;;;;;;;;;;4971780;28;20058;-78
2023/12/28 01:04:01;;;;;;;5.47;4.07;;;;;;;;;;4969336;28;20045;-76
2023/12/28 01:06:28;;;;;;;7.18;4.05;;;;;;;;;;4986678;28;20064;-75
2023/12/28 01:08:55;;;;;;;4.90;3.20;;;;;;;;;;4970104;28;20049;-75
2023/12/28 01:11:21;;;;;;;5.22;3.42;;;;;;;;;;4982883;28;20600;-76
2023/12/28 01:13:47;;;;;;;5.88;3.35;;;;;;;;;;4987344;28;20049;-75
2023/12/28 01:16:14;;;;;;;8.07;3.47;;;;;;;;;;4972863;28;20038;-75
2023/12/28 01:18:40;;;;;;;10.25;3.75;;;;;;;;;;4983101;28;20054;-82
2023/12/28 01:21:06;;;;;;;7.10;3.65;;;;;;;;;;4982402;28;20598;-79
2023/12/28 01:23:33;;;;;;;9.10;3.40;;;;;;;;;;4980843;28;20056;-77
2023/12/28 01:26:00;;;;;;;4.78;3.05;;;;;;;;;;4983702;28;20489;-82
2023/12/28 01:28:26;;;;;;;4.57;2.72;;;;;;;;;;4970636;28;20037;-82
2023/12/28 01:30:52;;;;;;;13.43;4.05;;;;;;;;;;4956484;28;20052;-82
2023/12/28 01:33:18;;;;;;;8.68;3.85;;;;;;;;;;4968754;28;20131;-78
2023/12/28 01:35:44;;;;;;;9.75;3.78;;;;;;;;;;4967524;28;20053;-82
2023/12/28 01:38:10;;;;;;;5.57;2.13;;;;;;;;;;4972583;28;20401;-76
2023/12/28 01:40:36;;;;;;;8.95;3.70;;;;;;;;;;4980946;28;20058;-77
2023/12/28 01:43:02;;;;;;;7.32;3.33;;;;;;;;;;4984170;28;20112;-75
2023/12/28 01:45:28;;;;;;;8.80;3.47;;;;;;;;;;4986376;28;20058;-75
2023/12/28 01:47:57;;;;;;;9.75;3.22;;;;;;;;;;4957749;28;20107;-75
2023/12/28 01:50:24;;;;;;;8.07;3.03;;;;;;;;;;4970551;28;20046;-79
2023/12/28 01:52:50;;;;;;;6.07;2.80;;;;;;;;;;4983708;28;20038;-77
2023/12/28 01:55:16;;;;;;;7.80;2.95;;;;;;;;;;4970089;28;20409;-75
2023/12/28 01:57:43;;;;;;;5.78;3.50;;;;;;;;;;4983553;28;20073;-76
2023/12/28 02:00:09;;;;;;;8.60;3.20;;;;;;;;;;4968514;28;20099;-75
2023/12/28 02:02:35;;;;;;;11.88;3.60;;;;;;;;;;4980769;28;20069;-77
2023/12/28 02:05:02;;;;;;;5.50;2.53;;;;;;;;;;4968875;28;20505;-75
2023/12/28 02:07:30;;;;;;;8.32;3.17;;;;;;;;;;4983286;28;20034;-75
2023/12/28 02:09:56;;;;;;;11.20;3.50;;;;;;;;;;4984134;28;20073;-76
2023/12/28 02:12:22;;;;;;;6.05;3.00;;;;;;;;;;4963917;28;20040;-76
2023/12/28 02:14:48;;;;;;;7.13;3.40;;;;;;;;;;4978381;28;20049;-75
2023/12/28 02:17:20;;;;;;;11.05;3.67;;;;;;;;;;4971879;28;20041;-75
2023/12/28 02:19:54;;;;;;;6.90;2.55;;;;;;;;;;4965093;28;20050;-76
2023/12/28 02:22:21;;;;;;;19.30;3.25;;;;;;;;;;4985666;28;20500;-77
2023/12/28 02:24:55;;;;;;;8.57;3.08;;;;;;;;;;4978085;28;20038;-76
2023/12/28 02:27:21;;;;;;;7.43;2.38;;;;;;;;;;4979154;28;20046;-79
2023/12/28 02:29:47;;;;;;;10.10;3.40;;;;;;;;;;4978411;28;20570;-76
2023/12/28 02:32:15;;;;;;;12.55;3.10;;;;;;;;;;4970381;28;20041;-76
2023/12/28 02:34:43;;;;;;;10.15;3.95;;;;;;;;;;4985449;28;20092;-76
2023/12/28 02:37:10;;;;;;;9.45;2.83;;;;;;;;;;4982459;28;20501;-77
2023/12/28 02:39:37;;;;;;;11.38;3.55;;;;;;;;;;4954666;28;20104;-77
2023/12/28 02:42:03;;;;;;;11.23;3.55;;;;;;;;;;4983031;28;20133;-76
2023/12/28 02:44:29;;;;;;;8.43;2.78;;;;;;;;;;4967915;28;20056;-76
2023/12/28 02:46:55;;;;;;;7.80;3.03;;;;;;;;;;4965727;28;20125;-76
2023/12/28 02:49:21;;;;;;;9.32;3.33;;;;;;;;;;4968621;28;20034;-80
2023/12/28 02:51:47;;;;;;;18.30;3.50;;;;;;;;;;4964977;28;20034;-83
2023/12/28 02:54:13;;;;;;;14.38;3.30;;;;;;;;;;4953345;28;20449;-82
2023/12/28 02:56:41;;;;;;;11.02;3.72;;;;;;;;;;4982091;28;20069;-82
2023/12/28 02:59:07;;;;;;;8.07;3.03;;;;;;;;;;4979409;28;20629;-83
2023/12/28 03:01:33;;;;;;;12.10;3.63;;;;;;;;;;4965999;28;20120;-83
2023/12/28 03:03:59;;;;;;;15.13;2.90;;;;;;;;;;4981409;28;20049;-81
2023/12/28 03:06:25;;;;;;;11.45;3.25;;;;;;;;;;4975474;28;20045;-82
2023/12/28 03:08:51;;;;;;;10.15;3.75;;;;;;;;;;4970544;28;20046;-81
2023/12/28 03:11:17;;;;;;;7.68;2.75;;;;;;;;;;4967497;28;20043;-83
2023/12/28 03:13:43;;;;;;;9.38;3.50;;;;;;;;;;4982327;28;20524;-82
2023/12/28 03:16:09;;;;;;;11.18;3.30;;;;;;;;;;4955002;28;20044;-82
2023/12/28 03:18:35;;;;;;;8.80;3.10;;;;;;;;;;4980445;28;20058;-82
2023/12/28 03:21:01;;;;;;;9.98;3.55;;;;;;;;;;4965416;28;20113;-82
2023/12/28 03:23:27;;;;;;;10.90;3.13;;;;;;;;;;4964694;28;20053;-83
2023/12/28 03:25:53;;;;;;;9.10;3.30;;;;;;;;;;4980849;28;20049;-80
2023/12/28 03:28:20;;;;;;;14.43;3.13;;;;;;;;;;4955528;28;20059;-83
2023/12/28 03:30:46;;;;;;;7.53;3.17;;;;;;;;;;4988564;28;20049;-82
2023/12/28 03:33:12;;;;;;;16.13;3.22;;;;;;;;;;4977277;28;21601;-82
2023/12/28 03:35:38;;;;;;;11.93;3.25;;;;;;;;;;4966504;28;20056;-82
2023/12/28 03:38:04;;;;;;;6.78;2.60;;;;;;;;;;4967417;28;20049;-75
2023/12/28 03:40:30;;;;;;;15.68;2.95;;;;;;;;;;4951907;28;20112;-75
2023/12/28 03:42:56;;;;;;;11.00;2.95;;;;;;;;;;4970077;28;20450;-77
2023/12/28 03:45:22;;;;;;;13.60;2.88;;;;;;;;;;4956552;28;20061;-76
2023/12/28 03:47:48;;;;;;;8.43;2.63;;;;;;;;;;4975385;28;20124;-76
2023/12/28 03:50:15;;;;;;;11.30;2.70;;;;;;;;;;4977640;28;20454;-75
2023/12/28 03:52:41;;;;;;;11.85;2.88;;;;;;;;;;4973227;28;20038;-76
2023/12/28 03:55:07;;;;;;;9.10;3.17;;;;;;;;;;4973811;28;20133;-78
2023/12/28 03:57:33;;;;;;;9.90;2.25;;;;;;;;;;4979012;28;20585;-76
2023/12/28 03:59:59;;;;;;;14.07;2.47;;;;;;;;;;4975919;28;20038;-75
2023/12/28 04:02:30;;;;;;;9.55;2.78;;;;;;;;;;4971040;28;20065;-78
2023/12/28 04:04:58;;;;;;;8.35;2.28;;;;;;;;;;4971969;28;20227;-76
2023/12/28 04:07:24;;;;;;;10.25;2.20;;;;;;;;;;4989739;28;20119;-76
2023/12/28 04:09:50;;;;;;;8.95;2.38;;;;;;;;;;4972792;28;20497;-76
2023/12/28 04:12:16;;;;;;;11.50;2.88;;;;;;;;;;4984873;28;21564;-77
2023/12/28 04:14:42;;;;;;;17.90;3.95;;;;;;;;;;4988491;28;20038;-76
2023/12/28 04:17:08;;;;;;;11.98;2.88;;;;;;;;;;4970755;28;20079;-76
2023/12/28 04:19:34;;;;;;;9.35;2.92;;;;;;;;;;4971319;28;20073;-77
2023/12/28 04:22:00;;;;;;;11.00;3.00;;;;;;;;;;4990199;28;20054;-77
2023/12/28 04:24:27;;;;;;;4.35;2.05;;;;;;;;;;4956417;28;20045;-76
2023/12/28 04:26:53;;;;;;;14.68;3.08;;;;;;;;;;4973358;28;20042;-76
2023/12/28 04:29:21;;;;;;;12.70;3.65;;;;;;;;;;4986302;28;20046;-76
2023/12/28 04:31:47;;;;;;;12.32;3.05;;;;;;;;;;4974615;28;20096;-77
2023/12/28 04:34:13;;;;;;;8.73;2.08;;;;;;;;;;4970070;28;20489;-77
2023/12/28 04:36:46;;;;;;;8.60;2.40;;;;;;;;;;4971874;28;20385;-76
2023/12/28 04:39:13;;;;;;;9.40;2.58;;;;;;;;;;4955368;28;20401;-77
2023/12/28 04:41:39;;;;;;;8.73;1.88;;;;;;;;;;4985257;28;20052;-79
2023/12/28 04:44:05;;;;;;;10.80;2.85;;;;;;;;;;4971590;28;20080;-77
2023/12/28 04:46:31;;;;;;;6.78;2.35;;;;;;;;;;4957473;28;20042;-77
2023/12/28 04:48:57;;;;;;;12.05;2.53;;;;;;;;;;4953222;28;20037;-76
2023/12/28 04:51:23;;;;;;;7.85;1.92;;;;;;;;;;4987792;28;20037;-76
2023/12/28 04:53:50;;;;;;;8.75;1.88;;;;;;;;;;4972295;28;20052;-75
2023/12/28 04:56:19;;;;;;;14.85;2.78;;;;;;;;;;4969946;28;20040;-76
2023/12/28 04:58:45;;;;;;;13.77;2.33;;;;;;;;;;4986947;28;20108;-79
2023/12/28 05:01:11;;;;;;;7.38;2.78;;;;;;;;;;4982707;28;20709;-76
2023/12/28 05:03:38;;;;;;;8.35;2.40;;;;;;;;;;4968925;28;20046;-76
2023/12/28 05:06:04;;;;;;;11.43;2.80;;;;;;;;;;4968354;28;20091;-79
2023/12/28 05:08:30;;;;;;;15.88;2.67;;;;;;;;;;4968723;28;20073;-76
2023/12/28 05:10:56;;;;;;;12.48;2.95;;;;;;;;;;4965900;28;20030;-75
2023/12/28 05:13:22;;;;;;;11.98;2.22;;;;;;;;;;4966100;28;20041;-77
2023/12/28 05:15:48;;;;;;;8.35;2.55;;;;;;;;;;4983934;28;20053;-75
2023/12/28 05:18:14;;;;;;;11.45;2.95;;;;;;;;;;4953572;28;20054;-75
2023/12/28 05:20:40;;;;;;;11.13;3.55;;;;;;;;;;4965930;28;20065;-76
2023/12/28 05:23:06;;;;;;;12.02;3.50;;;;;;;;;;4968807;28;20501;-77
2023/12/28 05:25:32;;;;;;;16.70;2.70;;;;;;;;;;4972106;28;20053;-75
2023/12/28 05:27:58;;;;;;;15.57;3.17;;;;;;;;;;4954301;28;22533;-76
2023/12/28 05:30:24;;;;;;;12.45;3.28;;;;;;;;;;4966716;28;20059;-79
2023/12/28 05:32:50;;;;;;;15.98;4.18;;;;;;;;;;4981342;28;20085;-75
2023/12/28 05:35:16;;;;;;;12.15;3.08;;;;;;;;;;4953137;28;20054;-76
2023/12/28 05:37:43;;;;;;;8.85;2.58;;;;;;;;;;4954189;28;20532;-77
2023/12/28 05:40:09;;;;;;;10.93;2.70;;;;;;;;;;4965859;28;20062;-75
2023/12/28 05:42:35;;;;;;;12.90;2.90;;;;;;;;;;4996278;28;20057;-75
2023/12/28 05:45:01;;;;;;;10.73;2.00;;;;;;;;;;4970274;28;20135;-74
2023/12/28 05:47:27;;;;;;;14.63;2.55;;;;;;;;;;4981321;28;20061;-75
2023/12/28 05:49:53;;;;;;;9.40;1.90;;;;;;;;;;4955299;28;20453;-76
2023/12/28 05:52:20;;;;;;;9.60;2.65;;;;;;;;;;4963954;28;20543;-76
2023/12/28 05:54:47;;;;;;;12.00;2.35;;;;;;;;;;4979607;28;20052;-75
2023/12/28 05:57:13;;;;;;;11.75;2.30;;;;;;;;;;4978624;28;20057;-75
2023/12/28 05:59:40;;;;;;;15.27;2.97;;;;;;;;;;4969309;28;20075;-80
2023/12/28 06:02:06;;;;;;;12.50;2.92;;;;;;;;;;4983917;28;20492;-83
2023/12/28 06:04:33;;;;;;;12.18;2.88;;;;;;;;;;4986013;28;20556;-80
2023/12/28 06:06:59;;;;;;;11.25;2.60;;;;;;;;;;4979412;28;20758;-81
2023/12/28 06:09:27;;;;;;;13.60;2.80;;;;;;;;;;4971855;28;20049;-81
2023/12/28 06:11:53;;;;;;;26.27;2.83;;;;;;;;;;4981889;28;20047;-81
2023/12/28 06:14:19;;;;;;;11.68;2.50;;;;;;;;;;4966492;28;20056;-78
2023/12/28 06:16:45;;;;;;;14.73;3.22;;;;;;;;;;4985502;28;20065;-81
2023/12/28 06:19:12;;;;;;;15.55;2.80;;;;;;;;;;4970105;28;20600;-81
2023/12/28 06:21:38;;;;;;;14.45;2.95;;;;;;;;;;4970120;28;20034;-83
2023/12/28 06:24:05;;;;;;;16.73;2.97;;;;;;;;;;4972206;28;20854;-80
2023/12/28 06:26:31;;;;;;;14.05;3.03;;;;;;;;;;4969892;28;20721;-83
2023/12/28 06:28:57;;;;;;;13.18;2.47;;;;;;;;;;4972376;28;20449;-84
2023/12/28 06:31:23;;;;;;;11.38;3.13;;;;;;;;;;4971021;28;20038;-82
2023/12/28 06:33:49;;;;;;;14.75;3.15;;;;;;;;;;4956672;28;20138;-82
2023/12/28 06:36:15;;;;;;;8.27;2.53;;;;;;;;;;4985411;28;20042;-78
2023/12/28 06:38:41;;;;;;;12.23;2.50;;;;;;;;;;4999887;28;20137;-82
2023/12/28 06:41:11;;;;;;;13.48;3.13;;;;;;;;;;4972124;28;20061;-82
2023/12/28 06:43:37;;;;;;;12.60;3.42;;;;;;;;;;4970029;28;20057;-80
2023/12/28 06:46:04;;;;;;;15.18;3.38;;;;;;;;;;4970085;28;20057;-82
2023/12/28 06:48:30;;;;;;;14.30;4.18;;;;;;;;;;4972210;28;20046;-82
2023/12/28 06:50:56;;;;;;;13.82;3.25;;;;;;;;;;4988749;28;20073;-82
2023/12/28 06:53:22;;;;;;;18.58;3.25;;;;;;;;;;4959673;28;20037;-81
2023/12/28 06:55:48;;;;;;;19.52;3.10;;;;;;;;;;4971506;28;20042;-83
2023/12/28 06:58:14;;;;;;;17.50;3.70;;;;;;;;;;4989014;28;20132;-80
2023/12/28 07:00:41;;;;;;;21.48;3.53;;;;;;;;;;4971715;28;20069;-82
2023/12/28 07:03:07;;;;;;;18.15;3.20;;;;;;;;;;4957719;28;20378;-82
2023/12/28 07:05:33;;;;;;;16.08;2.75;;;;;;;;;;4954878;28;20571;-82
2023/12/28 07:07:59;;;;;;;16.55;2.33;;;;;;;;;;4986388;28;20069;-81
2023/12/28 07:10:25;;;;;;;13.02;2.75;;;;;;;;;;4970561;28;20068;-76
2023/12/28 07:12:52;;;;;;;12.90;2.95;;;;;;;;;;4971006;28;20034;-76
2023/12/28 07:15:18;;;;;;;16.33;3.10;;;;;;;;;;4955388;28;20092;-76
2023/12/28 07:17:44;;;;;;;16.08;2.72;;;;;;;;;;4969689;28;20141;-76
2023/12/28 07:20:10;;;;;;;17.02;3.13;;;;;;;;;;4988350;28;20038;-77
2023/12/28 07:22:37;;;;;;;18.42;2.92;;;;;;;;;;4974070;28;20197;-76
2023/12/28 07:25:03;;;;;;;18.17;3.13;;;;;;;;;;4989000;28;20156;-76
2023/12/28 07:27:29;;;;;;;9.85;2.38;;;;;;;;;;4961139;28;20482;-76
2023/12/28 07:29:55;;;;;;;10.23;3.00;;;;;;;;;;4991360;28;20030;-76
2023/12/28 07:32:25;;;;;;;11.05;2.42;;;;;;;;;;4980786;28;20551;-76
2023/12/28 07:34:51;;;;;;;10.30;3.08;;;;;;;;;;4990878;28;20149;-76
2023/12/28 07:37:17;;;;;;;10.30;2.60;;;;;;;;;;4988433;28;20088;-76
2023/12/28 07:39:43;;;;;;;14.50;2.92;;;;;;;;;;4974623;28;20048;-76
2023/12/28 07:42:10;;;;;;;13.23;3.28;;;;;;;;;;4974006;28;20053;-76
2023/12/28 07:44:36;;;;;;;13.25;2.50;;;;;;;;;;4974596;28;20050;-76
2023/12/28 07:47:02;;;;;;;20.77;3.55;;;;;;;;;;4961827;28;20437;-77
2023/12/28 07:49:29;;;;;;;14.80;3.00;;;;;;;;;;4990086;28;20049;-76
2023/12/28 07:51:55;;;;;;;14.95;3.80;;;;;;;;;;4975942;28;20481;-76
2023/12/28 07:54:21;;;;;;;12.38;3.65;;;;;;;;;;4974926;28;20041;-76
2023/12/28 07:56:48;;;;;;;21.20;3.80;;;;;;;;;;4988276;28;20096;-77
2023/12/28 07:59:14;;;;;;;12.60;2.78;;;;;;;;;;4971179;28;20041;-76
2023/12/28 08:01:40;;;;;;;23.20;3.58;;;;;;;;;;4979192;28;20048;-76
2023/12/28 08:04:06;;;;;;;13.55;3.20;;;;;;;;;;4986219;28;20035;-76
2023/12/28 08:06:32;;;;;;;13.23;3.40;;;;;;;;;;4975422;28;20041;-75
2023/12/28 08:09:00;;;;;;;19.83;4.35;;;;;;;;;;4995657;28;20069;-75
2023/12/28 08:11:27;;;;;;;15.07;2.90;;;;;;;;;;4997708;28;20393;-76
2023/12/28 08:13:53;;;;;;;20.08;4.13;;;;;;;;;;4986521;28;20034;-75
2023/12/28 08:16:19;;;;;;;16.70;4.00;;;;;;;;;;4977790;28;20077;-77
2023/12/28 08:18:46;;;;;;;15.75;3.42;;;;;;;;;;4973213;28;20179;-81
2023/12/28 08:21:12;;;;;;;20.60;3.67;;;;;;;;;;4975270;28;20037;-82
2023/12/28 08:23:38;;;;;;;12.98;3.35;;;;;;;;;;4974532;28;20037;-83
2023/12/28 08:26:04;;;;;;;22.35;4.70;;;;;;;;;;4957624;28;20132;-78
2023/12/28 08:28:31;;;;;;;19.02;4.07;;;;;;;;;;4975095;28;20409;-82
2023/12/28 08:30:57;;;;;;;25.02;4.22;;;;;;;;;;4958964;28;20671;-82
2023/12/28 08:33:23;;;;;;;21.67;4.75;;;;;;;;;;4976939;28;20041;-82
2023/12/28 08:35:49;;;;;;;15.20;3.55;;;;;;;;;;4970597;28;20050;-82
2023/12/28 08:38:15;;;;;;;23.48;4.55;;;;;;;;;;4971694;28;20447;-83
2023/12/28 08:40:42;;;;;;;23.45;4.20;;;;;;;;;;4988357;28;20062;-83
2023/12/28 08:43:08;;;;;;;25.10;5.22;;;;;;;;;;4971909;28;20041;-80
2023/12/28 08:45:35;;;;;;;17.90;4.00;;;;;;;;;;4972925;28;20092;-80
2023/12/28 08:48:01;;;;;;;19.35;3.75;;;;;;;;;;4990801;28;20053;-82
2023/12/28 08:50:27;;;;;;;23.67;3.58;;;;;;;;;;4989148;28;20041;-81
2023/12/28 08:52:53;;;;;;;23.20;4.10;;;;;;;;;;4989869;28;20489;-81
2023/12/28 08:55:20;;;;;;;21.45;2.90;;;;;;;;;;4970753;28;20057;-80
2023/12/28 08:57:46;;;;;;;16.67;2.72;;;;;;;;;;4984511;28;20042;-79
2023/12/28 09:00:14;;;;;;;18.30;3.63;;;;;;;;;;4990682;28;20037;-80
2023/12/28 09:02:40;;;;;;;21.60;5.18;;;;;;;;;;4983712;28;20099;-80
2023/12/28 09:05:06;;;;;;;25.15;4.47;;;;;;;;;;4987786;28;20044;-78
2023/12/28 09:07:33;;;;;;;21.42;4.70;;;;;;;;;;4988506;28;20041;-80
2023/12/28 09:09:59;;;;;;;26.45;3.95;;;;;;;;;;4987626;28;20033;-80
2023/12/28 09:12:25;;;;;;;20.15;3.50;;;;;;;;;;4985468;28;20100;-79
2023/12/28 09:14:52;;;;;;;19.52;4.85;;;;;;;;;;4985347;28;20052;-80
2023/12/28 09:17:19;;;;;;;27.17;3.92;;;;;;;;;;4974191;28;20175;-79
2023/12/28 09:19:45;;;;;;;16.80;4.78;;;;;;;;;;4971070;28;20445;-78
2023/12/28 09:22:11;;;;;;;17.48;3.80;;;;;;;;;;4975500;28;20038;-80
2023/12/28 09:24:37;;;;;;;26.10;4.15;;;;;;;;;;4990010;28;20042;-82
2023/12/28 09:27:04;;;;;;;20.08;4.03;;;;;;;;;;4992184;28;20050;-82
2023/12/28 09:29:30;;;;;;;14.70;3.35;;;;;;;;;;4975333;28;20045;-80
2023/12/28 09:31:56;;;;;;;18.05;4.28;;;;;;;;;;4977342;28;20038;-82
2023/12/28 09:34:22;;;;;;;17.35;3.95;;;;;;;;;;4974456;28;20045;-81
2023/12/28 09:36:48;;;;;;;25.55;4.00;;;;;;;;;;4988473;28;20080;-82
2023/12/28 09:39:14;;;;;;;25.38;4.05;;;;;;;;;;4975046;28;20049;-82
2023/12/28 09:41:43;;;;;;;29.48;4.05;;;;;;;;;;4986106;28;20065;-81
2023/12/28 09:44:12;;;;;;;20.75;4.18;;;;;;;;;;4973621;28;20041;-82
2023/12/28 09:46:39;;;;;;;22.27;4.50;;;;;;;;;;4975217;28;20049;-81
2023/12/28 09:49:05;;;;;;;23.83;4.80;;;;;;;;;;4975060;28;20038;-77
2023/12/28 09:51:31;;;;;;;19.80;4.28;;;;;;;;;;4974336;28;20042;-77
2023/12/28 09:53:57;;;;;;;19.95;3.90;;;;;;;;;;4971570;28;20121;-76
2023/12/28 09:56:24;;;;;;;26.38;4.97;;;;;;;;;;4978718;28;20045;-77
2023/12/28 09:58:51;;;;;;;13.20;2.70;;;;;;;;;;4994631;28;20046;-76
2023/12/28 10:01:18;;;;;;;18.52;4.13;;;;;;;;;;4992216;28;20084;-76
2023/12/28 10:03:44;;;;;;;25.92;4.18;;;;;;;;;;4974274;28;20448;-77
2023/12/28 10:06:10;;;;;;;17.58;3.92;;;;;;;;;;4968564;28;20044;-76
2023/12/28 10:08:36;;;;;;;24.23;4.32;;;;;;;;;;4989600;28;20042;-76
2023/12/28 10:11:03;;;;;;;30.63;4.68;;;;;;;;;;4974044;28;20061;-76
2023/12/28 10:13:30;;;;;;;25.80;5.70;;;;;;;;;;4987877;28;20069;-77
2023/12/28 10:15:59;;;;;;;22.17;4.13;;;;;;;;;;4974395;28;20555;-76
2023/12/28 10:18:25;;;;;;;21.15;4.60;;;;;;;;;;4971104;28;20042;-77
2023/12/28 10:20:52;;;;;;;18.52;4.65;;;;;;;;;;4964949;28;20042;-79
2023/12/28 10:23:21;;;;;;;24.27;4.35;;;;;;;;;;4992984;28;20079;-76
2023/12/28 10:25:49;;;;;;;23.65;3.70;;;;;;;;;;4973264;28;20065;-77
2023/12/28 10:28:18;;;;;;;22.38;4.25;;;;;;;;;;4989732;28;20049;-76
2023/12/28 10:30:45;;;;;;;18.55;4.60;;;;;;;;;;4975774;28;20048;-76
2023/12/28 10:33:11;;;;;;;19.10;4.10;;;;;;;;;;4964213;28;20041;-76
2023/12/28 10:35:37;;;;;;;20.38;4.30;;;;;;;;;;4956812;28;20405;-77
2023/12/28 10:38:04;;;;;;;28.02;4.72;;;;;;;;;;4974003;28;20560;-77
2023/12/28 10:40:32;;;;;;;16.02;3.80;;;;;;;;;;4965410;28;20402;-77
2023/12/28 10:43:02;;;;;;;24.38;3.47;;;;;;;;;;4989033;28;20050;-75
2023/12/28 10:45:30;;;;;;;16.45;3.55;;;;;;;;;;4969980;28;20052;-76
2023/12/28 10:47:59;;;;;;;23.35;3.90;;;;;;;;;;4973976;28;20096;-75
2023/12/28 10:50:27;;;;;;;19.02;3.60;;;;;;;;;;4972431;28;20054;-75
2023/12/28 10:52:56;;;;;;;25.92;4.10;;;;;;;;;;4971743;28;20198;-75
2023/12/28 10:55:41;;;;;;;14.40;3.50;;;;;;;;;;4975765;28;20573;-76
2023/12/28 10:58:28;;;;;;;18.17;3.80;;;;;;;;;;4974666;28;20084;-77
2023/12/28 11:00:57;;;;;;;16.05;3.60;;;;;;;;;;4975398;28;20418;-77
2023/12/28 11:03:24;;;;;;;22.60;3.90;;;;;;;;;;5006627;28;20046;-76
2023/12/28 11:05:51;;;;;;;27.60;4.93;;;;;;;;;;4996628;28;20054;-77
2023/12/28 11:08:19;;;;;;;17.30;3.72;;;;;;;;;;4989515;28;21274;-78
2023/12/28 11:10:45;;;;;;;16.30;4.05;;;;;;;;;;4974781;28;20049;-76
2023/12/28 11:13:12;;;;;;;15.75;3.28;;;;;;;;;;4988910;28;20519;-77
2023/12/28 11:15:38;;;;;;;18.05;4.15;;;;;;;;;;4961416;28;23061;-78
2023/12/28 11:18:05;;;;;;;19.27;3.72;;;;;;;;;;4994707;28;20037;-76
2023/12/28 11:20:31;;;;;;;23.85;3.78;;;;;;;;;;4975907;28;20049;-75
2023/12/28 11:22:57;;;;;;;20.25;3.50;;;;;;;;;;4990946;28;20044;-75
2023/12/28 11:25:24;;;;;;;22.40;3.45;;;;;;;;;;4977228;28;20505;-76
2023/12/28 11:27:50;;;;;;;23.55;4.15;;;;;;;;;;4980372;28;20057;-77
2023/12/28 11:30:16;;;;;;;21.23;3.65;;;;;;;;;;4990862;28;20065;-77
2023/12/28 11:32:43;;;;;;;20.17;3.08;;;;;;;;;;4957658;28;20120;-76
2023/12/28 11:35:11;;;;;;;23.77;4.10;;;;;;;;;;4992689;28;20493;-76
2023/12/28 11:37:39;;;;;;;26.77;4.88;;;;;;;;;;4991780;28;20423;-76
2023/12/28 11:40:15;;;;;;;22.95;4.18;;;;;;;;;;4990737;28;20104;-77
2023/12/28 11:42:51;;;;;;;13.68;2.83;;;;;;;;;;4975005;28;20048;-76
2023/12/28 11:45:18;;;;;;;23.23;4.03;;;;;;;;;;4972284;28;20081;-78
2023/12/28 11:47:45;;;;;;;18.83;4.65;;;;;;;;;;4990739;28;20532;-77
2023/12/28 11:50:12;;;;;;;16.63;4.30;;;;;;;;;;4975212;28;20080;-80
2023/12/28 11:52:38;;;;;;;19.70;4.32;;;;;;;;;;4990650;28;20069;-78
2023/12/28 11:55:04;;;;;;;19.30;4.38;;;;;;;;;;4990871;28;20492;-80
2023/12/28 11:57:31;;;;;;;21.52;4.55;;;;;;;;;;4957612;28;20053;-81
2023/12/28 12:00:02;;;;;;;29.70;4.75;;;;;;;;;;4977199;28;20045;-80
2023/12/28 12:02:28;;;;;;;21.20;4.32;;;;;;;;;;4990171;28;20046;-80
2023/12/28 12:04:57;;;;;;;23.75;4.35;;;;;;;;;;4974990;28;20041;-80
2023/12/28 12:07:29;;;;;;;20.15;3.95;;;;;;;;;;4990450;28;20176;-86
2023/12/28 12:09:58;;;;;;;12.57;2.60;;;;;;;;;;4975446;28;20087;-88
2023/12/28 12:12:25;;;;;;;20.38;3.05;;;;;;;;;;4976717;28;20048;-89
2023/12/28 12:14:51;;;;;;;16.70;2.75;;;;;;;;;;4993516;28;20385;-88
2023/12/28 12:17:18;;;;;;;22.48;3.42;;;;;;;;;;4989288;28;20184;-89
2023/12/28 12:19:48;;;;;;;10.63;2.92;;;;;;;;;;4965384;28;20037;-90
2023/12/28 12:22:14;;;;;;;15.35;3.63;;;;;;;;;;4975822;28;20042;-88
2023/12/28 12:24:42;;;;;;;15.23;3.30;;;;;;;;;;4987254;28;20042;-87
2023/12/28 12:27:08;;;;;;;18.95;5.07;;;;;;;;;;4978886;28;20111;-86
2023/12/28 12:29:34;;;;;;;16.45;3.45;;;;;;;;;;4979864;28;20397;-86
2023/12/28 12:32:03;;;;;;;16.23;4.05;;;;;;;;;;4977999;28;20047;-86
2023/12/28 12:34:29;;;;;;;15.50;4.45;;;;;;;;;;4978188;28;20037;-88
2023/12/28 12:36:55;;;;;;;18.50;3.13;;;;;;;;;;4979448;28;20065;-86
2023/12/28 12:39:24;;;;;;;23.05;3.95;;;;;;;;;;4990656;28;20105;-86
2023/12/28 12:41:51;;;;;;;22.70;3.28;;;;;;;;;;4973680;28;20528;-86
2023/12/28 12:44:18;;;;;;;19.67;4.10;;;;;;;;;;4972561;28;20543;-86
2023/12/28 12:46:44;;;;;;;15.77;3.30;;;;;;;;;;4990729;28;20073;-86
2023/12/28 12:49:10;;;;;;;21.55;3.45;;;;;;;;;;4974790;28;20044;-85
2023/12/28 12:51:36;;;;;;;20.20;3.75;;;;;;;;;;4974477;28;20796;-86
2023/12/28 12:54:03;;;;;;;23.05;4.93;;;;;;;;;;4973846;28;20041;-86
2023/12/28 12:56:30;;;;;;;25.83;5.32;;;;;;;;;;4995258;28;20121;-85
2023/12/28 12:58:56;;;;;;;23.10;3.83;;;;;;;;;;4975086;28;20430;-86
2023/12/28 13:01:23;;;;;;;23.10;3.40;;;;;;;;;;4976871;28;20041;-83
2023/12/28 13:03:49;;;;;;;20.77;4.03;;;;;;;;;;4990869;28;20046;-85
2023/12/28 13:06:15;;;;;;;24.90;5.43;;;;;;;;;;4974205;28;20138;-84
2023/12/28 13:08:41;;;;;;;28.92;4.28;;;;;;;;;;4975312;28;20179;-83
2023/12/28 13:11:07;;;;;;;31.98;5.65;;;;;;;;;;4992258;28;20042;-81
2023/12/28 13:13:33;;;;;;;27.70;4.63;;;;;;;;;;4957890;28;20042;-82
2023/12/28 13:15:59;;;;;;;19.15;4.45;;;;;;;;;;4988018;28;20038;-81
2023/12/28 13:18:26;;;;;;;23.10;4.07;;;;;;;;;;4993186;28;20994;-83
2023/12/28 13:20:52;;;;;;;20.27;4.00;;;;;;;;;;4972928;28;20041;-83
2023/12/28 13:23:18;;;;;;;22.33;4.30;;;;;;;;;;4955926;28;20169;-83
2023/12/28 13:25:44;;;;;;;20.90;4.03;;;;;;;;;;4974805;28;20041;-83
2023/12/28 13:28:12;;;;;;;20.75;3.83;;;;;;;;;;4993234;28;20118;-82
2023/12/28 13:30:38;;;;;;;28.95;4.05;;;;;;;;;;4961321;28;20033;-83
2023/12/28 13:33:05;;;;;;;21.80;3.30;;;;;;;;;;4974521;28;20558;-82
2023/12/28 13:35:33;;;;;;;22.65;4.25;;;;;;;;;;4973928;28;20120;-82
2023/12/28 13:37:59;;;;;;;23.65;4.72;;;;;;;;;;4985967;28;20053;-84
2023/12/28 13:40:25;;;;;;;13.77;3.85;;;;;;;;;;4970467;28;20092;-83
2023/12/28 13:42:51;;;;;;;19.42;3.15;;;;;;;;;;4991524;28;20042;-83
2023/12/28 13:45:18;;;;;;;26.05;3.70;;;;;;;;;;4978026;28;20042;-83
2023/12/28 13:47:44;;;;;;;15.02;4.15;;;;;;;;;;4973074;28;20103;-84
2023/12/28 13:50:10;;;;;;;17.23;3.58;;;;;;;;;;4993133;28;20152;-84
2023/12/28 13:52:36;;;;;;;16.95;3.55;;;;;;;;;;4985476;28;21166;-84
2023/12/28 13:55:03;;;;;;;15.25;3.22;;;;;;;;;;4972655;28;20041;-83
2023/12/28 13:57:29;;;;;;;21.48;3.38;;;;;;;;;;4974049;28;20049;-85
2023/12/28 13:59:59;;;;;;;18.02;4.45;;;;;;;;;;4974744;28;20077;-84
2023/12/28 14:02:25;;;;;;;21.05;4.15;;;;;;;;;;4986542;28;20039;-83
2023/12/28 14:04:53;;;;;;;20.38;2.85;;;;;;;;;;4971314;28;20053;-84
2023/12/28 14:07:19;;;;;;;14.05;3.35;;;;;;;;;;4976213;28;20504;-84
2023/12/28 14:09:45;;;;;;;22.02;3.70;;;;;;;;;;4972110;28;20588;-84
2023/12/28 14:12:11;;;;;;;21.38;4.03;;;;;;;;;;4974355;28;20065;-83
2023/12/28 14:14:37;;;;;;;22.27;3.80;;;;;;;;;;4990135;28;20053;-84
2023/12/28 14:17:06;;;;;;;19.83;3.65;;;;;;;;;;4974435;28;20105;-83
2023/12/28 14:19:33;;;;;;;28.42;4.45;;;;;;;;;;4973638;28;20077;-83
2023/12/28 14:21:59;;;;;;;25.30;4.13;;;;;;;;;;4974859;28;20050;-83
2023/12/28 14:24:26;;;;;;;16.45;3.75;;;;;;;;;;4972805;28;20093;-84
2023/12/28 14:26:55;;;;;;;17.92;3.30;;;;;;;;;;4987869;28;20038;-83
2023/12/28 14:29:22;;;;;;;22.38;4.35;;;;;;;;;;4974499;28;20129;-84